Forest fire From: 19-07-2018 20:00 Until: 20-07-2018 16:00 warning for: Forest fire Level: Yellow info button
suomi:
Metsäpalovaroitus on voimassa.

svenska:
Varning för skogsbrand gäller.

english:
A forest fire warning is in force. 

Extreme high temperature From: 19-07-2018 20:00 Until: 23:00 warning for: Extreme high temperature Level: Yellow info button
suomi:
Hellevaroitus: Lähivuorokauden aikana on odotettavissa tukalaa hellettä.

svenska:
Varning för värmebölja: Under det närmaste dygnet är den svåra hettan att vänta.

english:
Heat wave warning: Warm weather is expected during the coming 24 hours. 


Thunder radar more information blitzortung!


Löydät sääaseman tiedot myös:

European Weather Network

Finland Weather Exchange

Weather Underground

AWEKAS



Weather Underground säähistoriasivu

Päivittäin yhteenveto Elokuu 14, 2017 Yksiköt:  Metriset    Englantilaiset   Molemmat
« Edellinen Päivä
Seuraava Päivä »
Päivittäin Viikoittain Kuukausittain Vuosittain Mukautettu
  Korkea: Matala: Keskiarvo:
Lämpötila: -17.8 °C -14 °C -10.8 °C
Kastepiste: -17.8 °C -14.4 °C -13.1 °C
Kosteus: Humidity % 56 % 77 %
Tuulen nopeus: 0 km/h 0 km/h 5 km/h
Tuulenpuuska: 0 km/h - -
Tuuli:- - SW
Ilmanpaine: 0 hPa 34246 hPa -
Sade: 0 mm    
Historical Graphs
 
 
Taulukkotiedot Elokuu 14, 2017
Aika Lämpötila Kastepiste Ilmanpaine Tuuli Tuulen nopeus Tuulenpuuska Kosteus Sademäärä (tunneittain)
-17.8 °C -17.8 °C 0 hPa Calm     Humidity % 0 mm
00:00 -13.5 °C -13.7 °C 34246 hPa Calm     97 % 0 mm
00:15 -13.2 °C -13.4 °C 34246 hPa Calm   7.7 km/h 97 % 0 mm
00:30 -12.5 °C -12.7 °C 34256.2 hPa SW 2.6 km/h 10.3 km/h 98 % 0 mm
00:45 -12.3 °C -12.4 °C 34256.2 hPa SSW 2.6 km/h 12.9 km/h 98 % 0 mm
01:00 -12.1 °C -12.4 °C 34256.2 hPa Calm   7.7 km/h 96 % 0 mm
01:15 -11.7 °C -12.1 °C 34269.7 hPa Calm   7.7 km/h 95 % 0 mm
01:30 -11.3 °C -12.2 °C 34269.7 hPa West 2.6 km/h 18.2 km/h 90 % 0 mm
01:45 -11 °C -12.4 °C 34279.9 hPa SW 2.6 km/h 15.6 km/h 85 % 0 mm
02:00 -10.8 °C -12.4 °C 34279.9 hPa West 5.1 km/h 20.8 km/h 82 % 0 mm
02:15 -10.5 °C -12.4 °C 34293.4 hPa WSW 7.7 km/h 20.8 km/h 80 % 0 mm
02:30 -10.2 °C -12.3 °C 34293.4 hPa West 5.1 km/h 20.8 km/h 78 % 0 mm
02:45 -9.9 °C -12.3 °C 34303.6 hPa WSW 7.7 km/h 23.3 km/h 76 % 0 mm
03:00 -9.9 °C -12.4 °C 34303.6 hPa West 10.3 km/h 31.1 km/h 74 % 0 mm
03:15 -9.8 °C -12.6 °C 34313.7 hPa WSW 12.9 km/h 36.2 km/h 72 % 0 mm
03:30 -9.6 °C -12.6 °C 34327.3 hPa SW 10.3 km/h 28.5 km/h 70 % 0 mm
03:45 -9.3 °C -12.2 °C 34327.3 hPa SW 7.7 km/h 18.2 km/h 71 % 0 mm
04:00 -9.1 °C -12.4 °C 34337.4 hPa West 7.7 km/h 25.9 km/h 68 % 0 mm
04:15 -9.1 °C -12.7 °C 34337.4 hPa SW 10.3 km/h 31.1 km/h 65 % 0 mm
04:30 -9.1 °C -12.7 °C 34347.6 hPa SW 12.9 km/h 38.8 km/h 65 % 0 mm
04:45 -8.8 °C -12.2 °C 34361.1 hPa West 10.3 km/h 41.4 km/h 67 % 0 mm
05:00 -8.9 °C -12.7 °C 34371.3 hPa SW 12.9 km/h 38.8 km/h 64 % 0 mm
05:15 -8.7 °C -12.4 °C 34371.3 hPa SW 10.3 km/h 28.5 km/h 65 % 0 mm
05:30 -8.8 °C -12.8 °C 34371.3 hPa WSW 10.3 km/h 36.2 km/h 62 % 0 mm
05:45 -8.7 °C -12.5 °C 34384.8 hPa SSW 12.9 km/h 41.4 km/h 64 % 0 mm
06:00 -8.4 °C -12.4 °C 34384.8 hPa SSW 7.7 km/h 38.8 km/h 62 % 0 mm
06:15 -8.3 °C -12.7 °C 34395 hPa SSW 10.3 km/h 25.9 km/h 60 % 0 mm
06:30 -8.4 °C -12.6 °C 34395 hPa WSW 12.9 km/h 38.8 km/h 61 % 0 mm
06:45 -8.3 °C -12.3 °C 34395 hPa SSW 12.9 km/h 41.4 km/h 63 % 0 mm
07:00 -8.2 °C -12.4 °C 34405.1 hPa SSW 12.9 km/h 38.8 km/h 61 % 0 mm
07:15 -8.4 °C -12.5 °C 34405.1 hPa SSW 18.2 km/h 49.2 km/h 62 % 0 mm
07:30 -8.2 °C -12.6 °C 34418.7 hPa SSW 12.9 km/h 46.7 km/h 60 % 0 mm
07:45 -8.1 °C -12.9 °C 34428.8 hPa WSW 12.9 km/h 33.6 km/h 57 % 0 mm
08:15 -8.2 °C -12.7 °C 34428.8 hPa SW 12.9 km/h 49.2 km/h 59 % 0 mm
08:30 -8.2 °C -12.8 °C 34442.4 hPa SW 12.9 km/h 31.1 km/h 58 % 0 mm
08:45 -8.1 °C -12.7 °C 34442.4 hPa SSW 10.3 km/h 28.5 km/h 58 % 0 mm
09:00 -7.9 °C -12.9 °C 34452.6 hPa WSW 12.9 km/h 31.1 km/h 56 % 0 mm
09:15 -8.1 °C -12.6 °C 34452.6 hPa SW 10.3 km/h 25.9 km/h 59 % 0 mm
09:30 -8.1 °C -12.7 °C 34462.7 hPa SSW 12.9 km/h 46.7 km/h 58 % 0 mm
09:45 -8 °C -12.6 °C 34462.7 hPa SSW 10.3 km/h 28.5 km/h 59 % 0 mm
10:00 -8.2 °C -12.8 °C 34462.7 hPa WSW 10.3 km/h 28.5 km/h 58 % 0 mm
10:15 -8.1 °C -12.6 °C 34462.7 hPa SW 7.7 km/h 20.8 km/h 59 % 0 mm
10:30 -8.1 °C -12.8 °C 34462.7 hPa WSW 7.7 km/h 28.5 km/h 58 % 0 mm
10:45 -8.3 °C -12.8 °C 34476.3 hPa SSW 12.9 km/h 38.8 km/h 59 % 0 mm
11:00 -8.4 °C -12.7 °C 34476.3 hPa SSW 10.3 km/h 25.9 km/h 61 % 0 mm
11:15 -8.4 °C -12.9 °C 34486.4 hPa SW 7.7 km/h 31.1 km/h 59 % 0 mm
11:30 -8.4 °C -12.8 °C 34486.4 hPa SW 7.7 km/h 28.5 km/h 60 % 0 mm
11:45 -8.6 °C -12.9 °C 34486.4 hPa SW 7.7 km/h 28.5 km/h 60 % 0 mm
12:00 -8.7 °C -12.7 °C 34486.4 hPa SW 2.6 km/h 10.3 km/h 62 % 0 mm
12:15 -8.8 °C -12.7 °C 34496.6 hPa SSW 7.7 km/h 23.3 km/h 63 % 0 mm
12:30 -9.1 °C -12.7 °C 34496.6 hPa SW 7.7 km/h 20.8 km/h 65 % 0 mm
12:45 -9.3 °C -12.6 °C 34496.6 hPa SSW 5.1 km/h 18.2 km/h 68 % 0 mm
13:00 -9.6 °C -12.7 °C 34496.6 hPa SSW 2.6 km/h 15.6 km/h 69 % 0 mm
13:15 -9.7 °C -12.7 °C 34510.1 hPa SSW 5.1 km/h 23.3 km/h 70 % 0 mm
13:30 -9.9 °C -12.8 °C 34510.1 hPa SSW 2.6 km/h 10.3 km/h 71 % 0 mm
13:45 -10.1 °C -12.7 °C 34510.1 hPa SSW 2.6 km/h 12.9 km/h 73 % 0 mm
14:00 -10.2 °C -12.6 °C 34520.3 hPa SSW 2.6 km/h 15.6 km/h 75 % 0 mm
14:15 -10.4 °C -12.6 °C 34520.3 hPa Calm   7.7 km/h 77 % 0 mm
14:30 -10.7 °C -12.7 °C 34520.3 hPa Calm   5.1 km/h 79 % 0 mm
14:45 -10.9 °C -12.7 °C 34533.8 hPa Calm   7.7 km/h 81 % 0 mm
15:00 -11.2 °C -12.7 °C 34533.8 hPa Calm     83 % 0 mm
15:15 -11.4 °C -12.8 °C 34533.8 hPa Calm   7.7 km/h 84 % 0 mm
15:30 -11.6 °C -12.9 °C 34544 hPa Calm   10.3 km/h 85 % 0 mm
15:45 -11.7 °C -13 °C 34544 hPa Calm     86 % 0 mm
16:00 -11.9 °C -13.1 °C 34544 hPa Calm   10.3 km/h 87 % 0 mm
16:15 -12.1 °C -13.1 °C 34554.1 hPa Calm     88 % 0 mm
16:30 -12.2 °C -13.2 °C 34554.1 hPa Calm   2.6 km/h 89 % 0 mm
16:45 -12.2 °C -13.1 °C 34567.7 hPa SW 2.6 km/h 12.9 km/h 90 % 0 mm
17:00 -12.2 °C -13.2 °C 34567.7 hPa SSW 2.6 km/h 10.3 km/h 89 % 0 mm
17:15 -12.3 °C -13.2 °C 34577.8 hPa Calm   15.6 km/h 90 % 0 mm
17:30 -12.4 °C -13.3 °C 34577.8 hPa Calm   5.1 km/h 90 % 0 mm
17:45 -12.6 °C -13.4 °C 34577.8 hPa Calm   12.9 km/h 91 % 0 mm
18:00 -12.7 °C -13.5 °C 34591.4 hPa Calm   10.3 km/h 91 % 0 mm
18:15 -12.8 °C -13.5 °C 34591.4 hPa Calm     92 % 0 mm
18:30 -12.9 °C -13.4 °C 34591.4 hPa Calm   12.9 km/h 93 % 0 mm
18:45 -12.9 °C -13.6 °C 34591.4 hPa Calm   7.7 km/h 92 % 0 mm
19:00 -13 °C -13.7 °C 34591.4 hPa Calm   2.6 km/h 92 % 0 mm
19:15 -13.1 °C -13.7 °C 34601.5 hPa Calm   2.6 km/h 93 % 0 mm
19:45 -13.1 °C -13.7 °C 34601.5 hPa Calm   10.3 km/h 93 % 0 mm
20:00 -13.1 °C -13.6 °C 34601.5 hPa SSW 2.6 km/h 12.9 km/h 94 % 0 mm
20:15 -13.2 °C -13.7 °C 34601.5 hPa Calm     93 % 0 mm
20:30 -13.2 °C -13.8 °C 34611.7 hPa Calm   5.1 km/h 93 % 0 mm
20:45 -13.4 °C -14.1 °C 34611.7 hPa Calm     93 % 0 mm
21:00 -13.5 °C -14 °C 34611.7 hPa Calm   7.7 km/h 94 % 0 mm
21:15 -13.4 °C -13.9 °C 34611.7 hPa Calm   10.3 km/h 95 % 0 mm
21:30 -13.4 °C -13.8 °C 34611.7 hPa Calm   5.1 km/h 95 % 0 mm
22:00 -13.5 °C -14 °C 34625.2 hPa Calm     94 % 0 mm
22:15 -13.8 °C -14.3 °C 34625.2 hPa Calm     94 % 0 mm
22:30 -13.9 °C -14.3 °C 34625.2 hPa Calm     95 % 0 mm
22:45 -14 °C -14.4 °C 34625.2 hPa Calm     95 % 0 mm
23:00 -14 °C -14.4 °C 34625.2 hPa Calm     95 % 0 mm
23:15 -14 °C -14.3 °C 34625.2 hPa Calm     96 % 0 mm
23:30 -13.9 °C -14.3 °C 34625.2 hPa Calm     96 % 0 mm
23:45 -13.9 °C -14.2 °C 34635.4 hPa Calm     96 % 0 mm
Esan sääasema
Terveisin Weather Underground - 2.75 mb

Alkuperäinen skripti  Jim McMurry - jmcmurry@mwt.net Sovitettu myös templatelle  Wim van der Kuil - Leuven-Template.eu

Laitteet joita käytämme:

Sääasema
Davis VP2

Sääasemaohjelma
Cumulus

Sääaseman tietokone
Asus EeePC

Palveluntarjoaja
Suncomet

Davis VP2

Cumulus

Asus EeePC

Suncomet